createdAt,value
2019-05-07T00:00:43.624Z,4.60
2019-05-07T00:03:08.908Z,4.60
2019-05-07T00:05:35.727Z,4.60
2019-05-07T00:08:03.143Z,4.70
2019-05-07T00:10:32.937Z,4.70
2019-05-07T00:12:58.953Z,4.70
2019-05-07T00:15:25.773Z,4.70
2019-05-07T00:17:52.590Z,4.60
2019-05-07T00:20:19.521Z,4.60
2019-05-07T00:22:46.332Z,4.60
2019-05-07T00:25:13.406Z,4.60
2019-05-07T00:27:42.573Z,4.60
2019-05-07T00:30:09.335Z,4.60
2019-05-07T00:32:36.221Z,4.60
2019-05-07T00:35:05.757Z,4.50
2019-05-07T00:37:43.128Z,4.50
2019-05-07T00:40:22.543Z,4.40
2019-05-07T00:43:07.713Z,4.40
2019-05-07T00:45:44.134Z,4.30
2019-05-07T00:48:12.633Z,4.30
2019-05-07T00:50:42.085Z,4.20
2019-05-07T00:53:09.110Z,4.30
2019-05-07T00:55:36.142Z,4.30
2019-05-07T00:58:03.123Z,4.30
2019-05-07T01:00:30.515Z,4.30
2019-05-07T01:02:57.338Z,4.30
2019-05-07T01:05:24.287Z,4.30
2019-05-07T01:07:52.920Z,4.30
2019-05-07T01:10:22.136Z,4.40
2019-05-07T01:12:48.918Z,4.40
2019-05-07T01:15:27.870Z,4.40
2019-05-07T01:17:44.671Z,4.30
2019-05-07T01:20:12.552Z,4.20
2019-05-07T01:22:39.578Z,4.20
2019-05-07T01:25:06.734Z,4.30
2019-05-07T01:27:33.538Z,4.20
2019-05-07T01:30:02.575Z,4.30
2019-05-07T01:32:42.603Z,4.20
2019-05-07T01:35:16.635Z,4.20
2019-05-07T01:37:43.430Z,4.20
2019-05-07T01:40:12.242Z,4.10
2019-05-07T01:42:39.045Z,4.10
2019-05-07T01:45:06.502Z,4.10
2019-05-07T01:47:33.324Z,4.10
2019-05-07T01:50:02.802Z,4.10
2019-05-07T01:52:28.940Z,4.10
2019-05-07T01:54:55.858Z,4.10
2019-05-07T01:57:23.260Z,4.20
2019-05-07T01:59:52.558Z,4.10
2019-05-07T02:02:44.399Z,4.10
2019-05-07T02:05:23.518Z,4.10
2019-05-07T02:07:54.429Z,4.10
2019-05-07T02:10:42.783Z,4.10
2019-05-07T02:13:09.903Z,4.10
2019-05-07T02:15:36.726Z,4.10
2019-05-07T02:18:03.780Z,4.10
2019-05-07T02:20:32.163Z,4.10
2019-05-07T02:22:59.403Z,4.20
2019-05-07T02:25:26.251Z,4.20
2019-05-07T02:27:53.062Z,4.20
2019-05-07T02:30:23.292Z,4.20
2019-05-07T02:32:48.677Z,4.20
2019-05-07T02:35:15.611Z,4.20
2019-05-07T02:37:53.445Z,4.10
2019-05-07T02:40:25.083Z,4.10
2019-05-07T02:42:53.956Z,4.10
2019-05-07T02:45:27.613Z,4.20
2019-05-07T02:47:54.410Z,4.20
2019-05-07T02:50:36.572Z,4.20
2019-05-07T02:53:26.090Z,4.10
2019-05-07T02:55:54.778Z,4.10
2019-05-07T02:58:24.073Z,4.10
2019-05-07T03:00:53.151Z,4.10
2019-05-07T03:03:19.438Z,4.10
2019-05-07T03:05:46.456Z,4.10
2019-05-07T03:08:13.783Z,4.00
2019-05-07T03:10:43.540Z,4.00
2019-05-07T03:13:09.861Z,4.00
2019-05-07T03:15:36.846Z,4.10
2019-05-07T03:18:03.869Z,4.20
2019-05-07T03:20:37.670Z,4.30
2019-05-07T03:23:05.260Z,4.40
2019-05-07T03:25:54.142Z,4.40
2019-05-07T03:28:23.133Z,4.30
2019-05-07T03:30:57.182Z,4.40
2019-05-07T03:33:48.103Z,4.30
2019-05-07T03:36:17.135Z,4.30
2019-05-07T03:38:44.398Z,4.30
2019-05-07T03:41:12.892Z,4.30
2019-05-07T03:43:40.035Z,4.20
2019-05-07T03:46:14.693Z,4.30
2019-05-07T03:48:44.103Z,4.30
2019-05-07T03:51:13.220Z,4.90
2019-05-07T03:53:43.180Z,5.70
2019-05-07T03:56:08.677Z,5.90
2019-05-07T03:58:35.509Z,6.50
2019-05-07T04:01:04.232Z,6.80
2019-05-07T04:03:34.162Z,6.90
2019-05-07T04:06:00.122Z,7.20
2019-05-07T04:08:26.922Z,7.40
2019-05-07T04:10:54.197Z,7.70
2019-05-07T04:13:23.986Z,8.00
2019-05-07T04:15:52.594Z,8.40
2019-05-07T04:18:18.925Z,8.60
2019-05-07T04:20:45.810Z,8.80
2019-05-07T04:23:13.766Z,8.00
2019-05-07T04:26:13.461Z,8.60
2019-05-07T04:29:05.449Z,9.00
2019-05-07T04:31:35.788Z,9.00
2019-05-07T04:34:07.889Z,9.20
2019-05-07T04:36:43.521Z,9.20
2019-05-07T04:39:29.628Z,9.00
2019-05-07T04:41:56.448Z,8.10
2019-05-07T04:44:23.702Z,6.90
2019-05-07T04:46:53.345Z,6.40
2019-05-07T04:49:19.843Z,6.50
2019-05-07T04:51:55.970Z,7.10
2019-05-07T04:54:23.750Z,7.30
2019-05-07T04:56:53.209Z,7.50
2019-05-07T04:59:19.922Z,7.70
2019-05-07T05:01:53.640Z,7.70
2019-05-07T05:04:29.497Z,7.90
2019-05-07T05:06:49.178Z,8.20
2019-05-07T05:09:16.013Z,8.00
2019-05-07T05:11:43.903Z,8.10
2019-05-07T05:14:13.455Z,8.10
2019-05-07T05:16:39.692Z,8.30
2019-05-07T05:19:06.578Z,8.30
2019-05-07T05:22:01.892Z,8.30
2019-05-07T05:24:33.001Z,8.30
2019-05-07T05:27:00.499Z,8.40
2019-05-07T05:29:28.910Z,8.40
2019-05-07T05:31:55.838Z,8.20
2019-05-07T05:34:22.760Z,8.40
2019-05-07T05:36:49.663Z,8.50
2019-05-07T05:39:16.514Z,8.70
2019-05-07T05:41:45.288Z,8.80
2019-05-07T05:44:18.631Z,8.70
2019-05-07T05:46:45.835Z,8.60
2019-05-07T05:49:12.657Z,8.70
2019-05-07T05:52:08.233Z,8.70
2019-05-07T05:54:38.898Z,8.70
2019-05-07T05:57:24.366Z,8.30
2019-05-07T06:00:13.914Z,8.50
2019-05-07T06:03:02.442Z,8.80
2019-05-07T06:05:54.045Z,8.60
2019-05-07T06:08:43.426Z,8.70
2019-05-07T06:11:35.639Z,8.60
2019-05-07T06:14:07.326Z,8.60
2019-05-07T06:16:37.338Z,8.80
2019-05-07T06:19:24.531Z,8.50
2019-05-07T06:22:09.735Z,8.80
2019-05-07T06:24:45.093Z,8.20
2019-05-07T06:27:12.303Z,8.30
2019-05-07T06:29:39.243Z,8.70
2019-05-07T06:32:08.488Z,8.50
2019-05-07T06:34:35.379Z,8.80
2019-05-07T06:37:02.384Z,8.30
2019-05-07T06:40:20.399Z,8.50
2019-05-07T06:43:03.181Z,8.70
2019-05-07T06:45:35.426Z,9.00
2019-05-07T06:48:03.055Z,8.70
2019-05-07T06:50:30.018Z,8.80
2019-05-07T06:52:57.086Z,8.90
2019-05-07T06:55:23.973Z,9.30
2019-05-07T06:57:52.957Z,9.50
2019-05-07T07:00:39.184Z,9.70
2019-05-07T07:03:13.886Z,9.40
2019-05-07T07:06:12.741Z,9.00
2019-05-07T07:08:52.574Z,9.00
2019-05-07T07:11:25.333Z,8.90
2019-05-07T07:13:52.426Z,9.40
2019-05-07T07:16:19.439Z,9.70
2019-05-07T07:18:51.880Z,9.30
2019-05-07T07:21:15.145Z,8.40
2019-05-07T07:23:42.926Z,7.90
2019-05-07T07:26:10.011Z,7.80
2019-05-07T07:28:38.689Z,7.50
2019-05-07T07:31:14.442Z,7.80
2019-05-07T07:33:43.692Z,8.60
2019-05-07T07:36:12.026Z,9.00
2019-05-07T07:38:38.948Z,9.30
2019-05-07T07:41:28.102Z,9.60
2019-05-07T07:46:22.397Z,10.10
2019-05-07T07:49:03.169Z,9.70
2019-05-07T07:51:18.138Z,9.70
2019-05-07T07:53:45.150Z,10.20
2019-05-07T07:56:53.808Z,9.80
2019-05-07T07:59:42.154Z,10.10
2019-05-07T08:02:32.889Z,9.90
2019-05-07T08:05:01.960Z,9.90
2019-05-07T08:07:28.761Z,10.30
2019-05-07T08:09:55.723Z,10.40
2019-05-07T08:12:22.722Z,10.30
2019-05-07T08:14:51.772Z,10.30
2019-05-07T08:17:18.673Z,10.50
2019-05-07T08:19:45.704Z,11.00
2019-05-07T08:22:12.724Z,10.80
2019-05-07T08:24:39.749Z,10.20
2019-05-07T08:27:06.749Z,9.90
2019-05-07T08:29:33.590Z,10.30
2019-05-07T08:32:12.627Z,10.80
2019-05-07T08:34:44.772Z,10.70
2019-05-07T08:37:12.104Z,11.10
2019-05-07T08:39:38.990Z,10.70
2019-05-07T08:42:05.957Z,10.30
2019-05-07T08:44:39.690Z,10.00
2019-05-07T08:47:25.274Z,9.90
2019-05-07T08:49:52.495Z,10.10
2019-05-07T08:52:19.481Z,11.00
2019-05-07T08:54:46.467Z,11.00
2019-05-07T08:57:13.365Z,11.30
2019-05-07T08:59:42.289Z,11.20
2019-05-07T09:02:09.304Z,10.60
2019-05-07T09:04:36.225Z,10.70
2019-05-07T09:07:12.812Z,11.00
2019-05-07T09:09:39.580Z,11.10
2019-05-07T09:12:06.473Z,11.40
2019-05-07T09:14:33.553Z,11.30
2019-05-07T09:17:02.637Z,11.30
2019-05-07T09:19:32.058Z,12.00
2019-05-07T09:21:58.883Z,10.90
2019-05-07T09:24:25.897Z,11.30
2019-05-07T09:27:12.027Z,11.30
2019-05-07T09:29:52.098Z,11.20
2019-05-07T09:32:27.208Z,10.90
2019-05-07T09:34:54.341Z,11.30
2019-05-07T09:37:24.765Z,10.90
2019-05-07T09:39:51.933Z,11.00
2019-05-07T09:42:18.854Z,11.70
2019-05-07T09:44:45.810Z,11.00
2019-05-07T09:47:12.986Z,11.30
2019-05-07T09:49:41.816Z,11.80
2019-05-07T09:52:08.818Z,11.50
2019-05-07T09:54:35.614Z,10.80
2019-05-07T09:57:02.630Z,10.10
2019-05-07T09:59:29.732Z,10.30
2019-05-07T10:01:56.746Z,11.30
2019-05-07T10:04:23.866Z,10.80
2019-05-07T10:06:51.888Z,10.40
2019-05-07T10:09:18.997Z,10.50
2019-05-07T10:12:03.807Z,10.40
2019-05-07T10:14:32.970Z,10.50
2019-05-07T10:17:17.468Z,10.80
2019-05-07T10:19:44.457Z,10.40
2019-05-07T10:22:12.635Z,10.50
2019-05-07T10:24:41.778Z,10.50
2019-05-07T10:27:09.427Z,10.90
2019-05-07T10:29:36.478Z,10.80
2019-05-07T10:32:03.617Z,11.20
2019-05-07T10:34:30.627Z,11.30
2019-05-07T10:36:57.682Z,11.30
2019-05-07T10:39:24.811Z,11.10
2019-05-07T10:41:51.600Z,11.00
2019-05-07T10:44:22.788Z,10.80
2019-05-07T10:47:07.817Z,10.50
2019-05-07T10:49:42.442Z,10.40
2019-05-07T10:52:09.454Z,10.90
2019-05-07T10:54:36.379Z,11.70
2019-05-07T10:57:03.434Z,11.20
2019-05-07T10:59:30.407Z,11.50
2019-05-07T11:02:04.605Z,12.70
2019-05-07T11:04:40.285Z,12.40
2019-05-07T11:07:00.450Z,11.80
2019-05-07T11:09:27.254Z,11.20
2019-05-07T11:11:54.208Z,11.00
2019-05-07T11:14:21.755Z,10.90
2019-05-07T11:16:57.911Z,11.90
2019-05-07T11:19:24.898Z,12.30
2019-05-07T11:21:52.160Z,12.80
2019-05-07T11:24:19.269Z,12.70
2019-05-07T11:26:46.178Z,12.40
2019-05-07T11:29:13.162Z,12.10
2019-05-07T11:31:41.878Z,11.90
2019-05-07T11:34:08.954Z,12.10
2019-05-07T11:36:35.766Z,12.30
2019-05-07T11:39:05.023Z,12.60
2019-05-07T11:41:44.890Z,13.10
2019-05-07T11:44:16.994Z,13.60
2019-05-07T11:47:12.665Z,13.70
2019-05-07T11:49:57.570Z,13.40
2019-05-07T11:52:29.149Z,13.00
2019-05-07T11:54:55.947Z,13.10
2019-05-07T11:57:22.764Z,12.50
2019-05-07T11:59:51.652Z,12.20
2019-05-07T12:02:18.336Z,11.40
2019-05-07T12:04:45.214Z,11.10
2019-05-07T12:07:12.249Z,11.00
2019-05-07T12:09:39.162Z,10.80
2019-05-07T12:12:06.166Z,10.80
2019-05-07T12:14:34.903Z,10.70
2019-05-07T12:17:02.736Z,11.10
2019-05-07T12:19:29.801Z,11.10
2019-05-07T12:21:56.709Z,10.70
2019-05-07T12:24:23.615Z,10.70
2019-05-07T12:26:52.236Z,11.20
2019-05-07T12:29:19.418Z,12.00
2019-05-07T12:31:57.951Z,12.10
2019-05-07T12:34:28.890Z,12.40
2019-05-07T12:36:55.926Z,12.70
2019-05-07T12:39:22.966Z,12.40
2019-05-07T12:41:49.889Z,11.70
2019-05-07T12:44:16.822Z,11.50
2019-05-07T12:46:43.756Z,11.10
2019-05-07T12:49:11.967Z,10.60
2019-05-07T12:52:13.914Z,9.70
2019-05-07T12:54:59.957Z,9.20
2019-05-07T12:57:26.998Z,9.00
2019-05-07T12:59:53.935Z,9.50
2019-05-07T13:02:42.050Z,10.30
2019-05-07T13:05:07.564Z,10.30
2019-05-07T13:07:52.359Z,10.20
2019-05-07T13:10:19.311Z,10.20
2019-05-07T13:12:46.423Z,9.80
2019-05-07T13:15:23.916Z,9.90
2019-05-07T13:17:42.461Z,10.30
2019-05-07T13:20:09.543Z,10.80
2019-05-07T13:22:36.566Z,11.50
2019-05-07T13:25:03.921Z,11.70
2019-05-07T13:27:32.012Z,11.80
2019-05-07T13:29:59.162Z,12.10
2019-05-07T13:32:26.702Z,12.10
2019-05-07T13:34:53.752Z,11.90
2019-05-07T13:37:24.867Z,12.20
2019-05-07T13:39:56.698Z,12.10
2019-05-07T13:42:44.004Z,11.80
2019-05-07T13:45:33.618Z,12.30
2019-05-07T13:48:07.675Z,12.30
2019-05-07T13:50:34.837Z,12.00
2019-05-07T13:53:01.886Z,11.90
2019-05-07T13:55:28.974Z,11.90
2019-05-07T13:57:55.997Z,11.90
2019-05-07T14:00:32.481Z,11.70
2019-05-07T14:02:59.626Z,11.30
2019-05-07T14:05:26.641Z,11.00
2019-05-07T14:07:53.658Z,10.70
2019-05-07T14:10:20.697Z,10.50
2019-05-07T14:12:47.731Z,10.40
2019-05-07T14:15:14.741Z,10.50
2019-05-07T14:17:41.784Z,10.40
2019-05-07T14:20:08.915Z,10.70
2019-05-07T14:22:36.013Z,11.00
2019-05-07T14:25:03.597Z,11.00
2019-05-07T14:27:32.166Z,10.70
2019-05-07T14:29:59.262Z,10.60
2019-05-07T14:32:45.863Z,10.90
2019-05-07T14:35:22.676Z,11.00
2019-05-07T14:37:53.493Z,10.70
2019-05-07T14:40:22.380Z,10.80
2019-05-07T14:42:54.816Z,10.70
2019-05-07T14:45:23.757Z,10.60
2019-05-07T14:47:52.279Z,10.60
2019-05-07T14:50:19.433Z,10.60
2019-05-07T14:52:46.377Z,10.60
2019-05-07T14:55:13.401Z,10.30
2019-05-07T14:57:42.088Z,10.20
2019-05-07T15:00:12.225Z,10.10
2019-05-07T15:02:41.946Z,10.00
2019-05-07T15:05:12.143Z,10.10
2019-05-07T15:07:39.321Z,9.90
2019-05-07T15:10:06.698Z,9.70
2019-05-07T15:12:33.761Z,9.30
2019-05-07T15:15:02.166Z,9.30
2019-05-07T15:17:46.349Z,9.30
2019-05-07T15:20:13.854Z,9.30
2019-05-07T15:22:56.400Z,9.60
2019-05-07T15:25:23.442Z,10.20
2019-05-07T15:27:52.659Z,10.30
2019-05-07T15:30:21.968Z,9.70
2019-05-07T15:32:49.019Z,9.40
2019-05-07T15:35:15.898Z,9.30
2019-05-07T15:37:42.906Z,9.30
2019-05-07T15:40:10.251Z,9.30
2019-05-07T15:42:37.348Z,9.50
2019-05-07T15:45:04.572Z,10.00
2019-05-07T15:47:37.860Z,10.30
2019-05-07T15:50:05.135Z,10.30
2019-05-07T15:52:51.490Z,10.10
2019-05-07T15:55:13.602Z,10.10
2019-05-07T15:57:42.671Z,10.10
2019-05-07T16:00:12.424Z,10.10
2019-05-07T16:02:45.144Z,10.10
2019-05-07T16:05:12.208Z,10.00
2019-05-07T16:07:41.942Z,9.80
2019-05-07T16:10:09.245Z,9.90
2019-05-07T16:12:36.195Z,9.80
2019-05-07T16:15:06.815Z,9.80
2019-05-07T16:17:43.727Z,9.70
2019-05-07T16:20:12.064Z,9.70
2019-05-07T16:22:44.406Z,9.70
2019-05-07T16:25:11.805Z,9.70
2019-05-07T16:27:42.239Z,9.80
2019-05-07T16:30:09.807Z,9.70
2019-05-07T16:32:36.808Z,9.60
2019-05-07T16:35:05.665Z,9.40
2019-05-07T16:37:35.918Z,9.30
2019-05-07T16:40:04.566Z,9.20
2019-05-07T16:42:32.242Z,9.20
2019-05-07T16:44:59.372Z,9.10
2019-05-07T16:47:26.206Z,9.10
2019-05-07T16:49:55.582Z,9.10
2019-05-07T16:52:22.574Z,8.90
2019-05-07T16:54:52.088Z,8.70
2019-05-07T16:57:33.705Z,8.50
2019-05-07T17:00:02.804Z,8.60
2019-05-07T17:02:34.004Z,8.60
2019-05-07T17:05:12.526Z,8.60
2019-05-07T17:07:46.535Z,8.70
2019-05-07T17:10:14.292Z,8.60
2019-05-07T17:12:42.779Z,8.60
2019-05-07T17:15:12.261Z,8.50
2019-05-07T17:17:38.741Z,8.50
2019-05-07T17:20:06.945Z,8.40
2019-05-07T17:22:33.838Z,8.40
2019-05-07T17:25:03.510Z,8.30
2019-05-07T17:27:32.131Z,8.20
2019-05-07T17:29:59.102Z,8.20
2019-05-07T17:32:45.673Z,8.20
2019-05-07T17:35:12.975Z,8.20
2019-05-07T17:37:40.046Z,8.20
2019-05-07T17:40:07.082Z,8.30
2019-05-07T17:42:34.004Z,8.30
2019-05-07T17:45:02.870Z,8.40
2019-05-07T17:47:32.011Z,8.50
2019-05-07T17:49:58.501Z,8.50
2019-05-07T17:52:25.298Z,8.50
2019-05-07T17:54:52.757Z,8.50
2019-05-07T17:57:19.870Z,8.40
2019-05-07T17:59:49.111Z,8.30
2019-05-07T18:02:32.834Z,8.10
2019-05-07T18:04:59.631Z,8.00
2019-05-07T18:07:26.606Z,8.00
2019-05-07T18:09:53.735Z,7.90
2019-05-07T18:12:22.513Z,7.80
2019-05-07T18:14:49.501Z,7.80
2019-05-07T18:17:33.702Z,7.80
2019-05-07T18:20:02.451Z,7.80
2019-05-07T18:22:29.545Z,7.80
2019-05-07T18:24:56.382Z,7.80
2019-05-07T18:27:24.253Z,7.70
2019-05-07T18:29:52.195Z,7.60
2019-05-07T18:32:21.757Z,7.50
2019-05-07T18:34:48.306Z,7.40
2019-05-07T18:37:15.250Z,7.40
2019-05-07T18:39:42.830Z,7.30
2019-05-07T18:42:09.786Z,7.20
2019-05-07T18:44:36.730Z,7.10
2019-05-07T18:47:04.347Z,7.00
2019-05-07T18:49:31.158Z,6.90
2019-05-07T18:51:58.062Z,6.90
2019-05-07T18:54:31.235Z,6.90
2019-05-07T18:56:53.777Z,6.90
2019-05-07T18:59:22.526Z,6.80
2019-05-07T19:01:49.527Z,6.70
2019-05-07T19:04:16.555Z,6.60
2019-05-07T19:06:43.500Z,6.60
2019-05-07T19:09:10.503Z,6.60
2019-05-07T19:11:37.574Z,6.70
2019-05-07T19:14:04.628Z,6.70
2019-05-07T19:16:32.319Z,6.80
2019-05-07T19:18:59.516Z,6.90
2019-05-07T19:21:27.157Z,6.80
2019-05-07T19:23:53.963Z,6.70
2019-05-07T19:26:20.865Z,6.60
2019-05-07T19:28:47.798Z,6.50
2019-05-07T19:31:14.773Z,6.40
2019-05-07T19:33:42.004Z,6.30
2019-05-07T19:36:09.134Z,6.10
2019-05-07T19:38:36.090Z,6.00
2019-05-07T19:41:03.112Z,5.90
2019-05-07T19:43:30.016Z,5.80
2019-05-07T19:45:57.006Z,5.70
2019-05-07T19:48:23.818Z,5.60
2019-05-07T19:50:52.581Z,5.40
2019-05-07T19:53:21.318Z,5.30
2019-05-07T19:56:06.383Z,5.10
2019-05-07T19:58:33.598Z,4.90
2019-05-07T20:01:01.582Z,4.80
2019-05-07T20:03:28.404Z,4.70
2019-05-07T20:06:08.476Z,4.60
2019-05-07T20:08:35.294Z,4.50
2019-05-07T20:11:08.282Z,4.40
2019-05-07T20:13:35.252Z,4.30
2019-05-07T20:16:12.319Z,4.10
2019-05-07T20:18:39.301Z,4.00
2019-05-07T20:21:06.298Z,3.90
2019-05-07T20:23:33.292Z,3.80
2019-05-07T20:26:00.295Z,3.70
2019-05-07T20:28:27.095Z,3.50
2019-05-07T20:30:56.323Z,3.40
2019-05-07T20:33:22.894Z,3.30
2019-05-07T20:35:49.915Z,3.20
2019-05-07T20:38:16.754Z,3.10
2019-05-07T20:40:43.644Z,3.10
2019-05-07T20:43:12.475Z,3.00
2019-05-07T20:45:39.161Z,3.10
2019-05-07T20:48:05.982Z,3.20
2019-05-07T20:50:33.350Z,3.30
2019-05-07T20:53:02.053Z,3.40
2019-05-07T20:55:54.494Z,3.40
2019-05-07T20:58:22.157Z,3.40
2019-05-07T21:00:49.525Z,3.50
2019-05-07T21:03:19.232Z,3.60
2019-05-07T21:05:47.341Z,3.60
2019-05-07T21:08:14.324Z,3.60
2019-05-07T21:10:42.648Z,3.60
2019-05-07T21:13:23.992Z,3.60
2019-05-07T21:15:38.454Z,3.60
2019-05-07T21:18:05.504Z,3.60
2019-05-07T21:20:32.525Z,3.60
2019-05-07T21:22:59.331Z,3.60
2019-05-07T21:25:26.271Z,3.60
2019-05-07T21:27:53.253Z,3.60
2019-05-07T21:30:22.200Z,3.40
2019-05-07T21:32:49.169Z,3.30
2019-05-07T21:35:16.060Z,3.30
2019-05-07T21:37:42.990Z,3.30
2019-05-07T21:40:09.981Z,3.30
2019-05-07T21:42:36.769Z,3.30
2019-05-07T21:45:03.987Z,3.20
2019-05-07T21:47:32.670Z,3.20
2019-05-07T21:49:59.661Z,3.10
2019-05-07T21:52:28.448Z,3.10
2019-05-07T21:55:04.039Z,3.10
2019-05-07T21:57:41.678Z,3.10
2019-05-07T22:00:23.448Z,3.00
2019-05-07T22:02:52.450Z,3.00
2019-05-07T22:05:19.455Z,3.00
2019-05-07T22:07:46.336Z,3.00
2019-05-07T22:10:13.466Z,3.10
2019-05-07T22:12:40.354Z,3.10
2019-05-07T22:15:07.467Z,3.10
2019-05-07T22:17:34.264Z,3.00
2019-05-07T22:20:03.081Z,3.00
2019-05-07T22:22:31.596Z,2.90
2019-05-07T22:24:58.446Z,2.90
2019-05-07T22:27:25.225Z,2.80
2019-05-07T22:29:52.719Z,2.70
2019-05-07T22:32:44.055Z,2.60
2019-05-07T22:35:15.552Z,2.60
2019-05-07T22:37:42.325Z,2.60
2019-05-07T22:40:09.413Z,2.60
2019-05-07T22:42:36.345Z,2.60
2019-05-07T22:45:03.838Z,2.60
2019-05-07T22:47:32.499Z,2.50
2019-05-07T22:49:59.341Z,2.50
2019-05-07T22:52:26.130Z,2.40
2019-05-07T22:54:52.990Z,2.30
2019-05-07T22:57:39.213Z,2.30
2019-05-07T23:00:12.325Z,2.20
2019-05-07T23:02:39.366Z,2.20
2019-05-07T23:05:06.385Z,2.20
2019-05-07T23:07:33.170Z,2.20
2019-05-07T23:09:59.965Z,2.10
2019-05-07T23:12:26.765Z,2.00
2019-05-07T23:14:53.763Z,1.90
2019-05-07T23:17:22.231Z,1.80
2019-05-07T23:19:52.039Z,1.80
2019-05-07T23:22:17.883Z,1.80
2019-05-07T23:24:44.669Z,1.80
2019-05-07T23:27:12.187Z,1.70
2019-05-07T23:29:41.783Z,1.70
2019-05-07T23:32:08.850Z,1.60
2019-05-07T23:34:35.659Z,1.60
2019-05-07T23:37:02.651Z,1.70
2019-05-07T23:39:31.978Z,1.80
2019-05-07T23:42:08.181Z,1.70
2019-05-07T23:44:34.957Z,1.70
2019-05-07T23:47:02.750Z,1.70
2019-05-07T23:49:32.110Z,1.60
2019-05-07T23:51:58.710Z,1.70
2019-05-07T23:54:25.496Z,1.70
2019-05-07T23:57:05.154Z,1.80
2019-05-07T23:59:22.194Z,1.80
